< < Back
Terminal Aerodrome Forecast


Current Version              Previous Versions:   1  2  3  4  5  6  7  8  9  

Terminal Aerodrome Forecast

728
FTUS44 KMOB 261100
TAFMOB
TAF
KMOB 261120Z 2612/2712 31008KT P6SM SKC
     FM261300 32012G22KT P6SM SCT025 BKN200
     FM262100 26004KT P6SM SCT250=



Latest METAR

110
SAUS80 KWBC 270300
MTRMOB
METAR KMOB 270256Z 00000KT 10SM CLR 04/00 A3006 RMK AO2 SLP178 T00390000
51001


USA.gov is the U.S. government's official web portal to all federal, state and local government web resources and services.